Time;durP1;ratioP1;P1;durP2;ratioP2;P2;SDS_P1;SDS_P2;PMS_P1;PMS_P2;Temp;Humidity;BMP_temperature;BMP_pressure;BME280_temperature;BME280_humidity;BME280_pressure;Samples;Min_cycle;Max_cycle;Signal;HPM_P1;HPM_P2
2022/04/30 00:02:15;;;;;;;17.13;8.60;;;12.40;99.90;;;;;;5072515;28;20100;-59
2022/04/30 00:04:42;;;;;;;27.02;10.98;;;12.30;99.90;;;;;;5072464;28;20029;-57
2022/04/30 00:07:09;;;;;;;24.42;10.68;;;12.10;99.90;;;;;;5055242;28;20115;-58
2022/04/30 00:09:38;;;;;;;22.15;10.40;;;12.00;99.90;;;;;;5054427;28;20021;-61
2022/04/30 00:12:04;;;;;;;25.13;10.73;;;11.70;99.90;;;;;;5072533;28;20056;-59
2022/04/30 00:14:30;;;;;;;25.45;10.43;;;11.40;99.90;;;;;;5072485;28;20025;-59
2022/04/30 00:16:56;;;;;;;24.58;12.00;;;11.20;99.90;;;;;;5054649;28;20017;-59
2022/04/30 00:19:23;;;;;;;34.67;12.80;;;11.00;99.90;;;;;;5054262;28;20032;-59
2022/04/30 00:21:49;;;;;;;25.80;12.30;;;10.90;99.90;;;;;;5072321;28;20078;-59
2022/04/30 00:24:15;;;;;;;33.38;12.02;;;10.90;99.90;;;;;;5055060;28;20035;-58
2022/04/30 00:26:41;;;;;;;28.58;11.50;;;10.90;99.90;;;;;;5055335;28;20116;-60
2022/04/30 00:29:07;;;;;;;29.45;12.02;;;10.90;99.90;;;;;;5072203;28;20091;-59
2022/04/30 00:31:36;;;;;;;26.65;12.45;;;10.90;99.90;;;;;;5072231;28;20044;-59
2022/04/30 00:34:03;;;;;;;22.85;9.65;;;11.00;99.90;;;;;;5072438;28;20021;-59
2022/04/30 00:36:29;;;;;;;23.88;12.23;;;11.10;99.90;;;;;;5054752;28;20029;-60
2022/04/30 00:38:55;;;;;;;23.33;11.90;;;11.00;99.90;;;;;;5057452;28;20523;-59
2022/04/30 00:41:21;;;;;;;23.63;11.30;;;10.90;99.90;;;;;;5075770;28;20104;-59
2022/04/30 00:43:51;;;;;;;27.38;11.57;;;10.90;99.90;;;;;;5075820;28;20025;-60
2022/04/30 00:46:19;;;;;;;18.65;10.15;;;10.90;99.90;;;;;;5076196;28;20494;-60
2022/04/30 00:48:45;;;;;;;22.50;11.38;;;11.10;99.90;;;;;;5057985;28;20024;-60
2022/04/30 00:51:13;;;;;;;24.42;10.82;;;10.90;99.90;;;;;;5057698;28;20028;-58
2022/04/30 00:53:51;;;;;;;23.48;11.20;;;11.00;99.90;;;;;;5075782;28;20043;-60
2022/04/30 00:56:27;;;;;;;26.85;12.65;;;10.80;99.90;;;;;;5057906;28;20110;-60
2022/04/30 00:58:56;;;;;;;24.23;11.85;;;10.60;99.90;;;;;;5075568;28;20027;-60
2022/04/30 01:01:23;;;;;;;26.58;12.77;;;10.40;99.90;;;;;;5057635;28;20037;-60
2022/04/30 01:03:49;;;;;;;26.08;12.77;;;10.40;99.90;;;;;;5057373;28;20040;-60
2022/04/30 01:06:15;;;;;;;26.25;12.55;;;10.20;99.90;;;;;;5075508;28;20032;-60
2022/04/30 01:08:41;;;;;;;22.80;10.57;;;10.30;99.90;;;;;;5057277;28;20028;-57
2022/04/30 01:11:07;;;;;;;17.33;11.07;;;10.40;99.90;;;;;;5075321;28;20028;-60
2022/04/30 01:13:35;;;;;;;21.55;10.50;;;10.60;99.90;;;;;;5057836;28;20024;-60
2022/04/30 01:16:03;;;;;;;25.33;11.32;;;10.60;99.90;;;;;;5057646;28;20024;-59
2022/04/30 01:18:29;;;;;;;23.08;12.15;;;10.50;99.90;;;;;;5075263;28;20039;-60
2022/04/30 01:20:59;;;;;;;23.17;11.38;;;10.40;99.90;;;;;;5057054;28;20023;-60
2022/04/30 01:23:26;;;;;;;22.27;11.80;;;10.20;99.90;;;;;;5057104;28;20016;-60
2022/04/30 01:25:53;;;;;;;24.40;12.40;;;10.10;99.90;;;;;;5075192;28;20025;-60
2022/04/30 01:28:19;;;;;;;26.17;12.07;;;10.00;99.90;;;;;;5075315;28;20024;-61
2022/04/30 01:30:45;;;;;;;23.77;12.27;;;10.10;99.90;;;;;;5056871;28;20024;-60
2022/04/30 01:38:40;;;;;;;24.73;11.45;;;10.20;99.90;;;;;;5075195;28;20154;-61
2022/04/30 01:41:05;;;;;;;19.63;9.82;;;10.40;99.90;;;;;;5057178;28;20025;-59
2022/04/30 01:43:33;;;;;;;18.42;10.60;;;10.50;99.90;;;;;;5074821;28;20033;-57
2022/04/30 01:46:00;;;;;;;18.23;9.30;;;10.60;99.90;;;;;;5057317;28;20032;-60
2022/04/30 01:48:25;;;;;;;20.75;10.27;;;10.70;99.90;;;;;;5057157;28;20107;-59
2022/04/30 01:50:52;;;;;;;21.35;11.65;;;10.80;99.90;;;;;;5056371;28;20154;-56
2022/04/30 01:53:18;;;;;;;18.05;10.55;;;10.70;99.90;;;;;;5074636;28;20017;-58
2022/04/30 01:55:44;;;;;;;22.48;10.55;;;10.70;99.90;;;;;;5057335;28;20021;-59
2022/04/30 01:58:10;;;;;;;26.15;11.82;;;10.60;99.90;;;;;;5074539;28;20043;-59
2022/04/30 02:00:36;;;;;;;22.65;11.88;;;10.70;99.90;;;;;;5056700;28;20059;-59
2022/04/30 02:03:09;;;;;;;21.30;11.18;;;10.70;99.90;;;;;;5074379;28;20032;-59
2022/04/30 02:05:37;;;;;;;22.15;11.68;;;10.60;99.90;;;;;;5056516;28;20033;-59
2022/04/30 02:08:16;;;;;;;19.90;11.20;;;10.50;99.90;;;;;;5056981;28;20031;-59
2022/04/30 02:10:42;;;;;;;19.52;11.18;;;10.50;99.90;;;;;;5074038;28;20024;-59
2022/04/30 02:13:09;;;;;;;20.40;11.10;;;10.40;99.90;;;;;;5056580;28;20020;-59
2022/04/30 02:15:37;;;;;;;23.30;10.70;;;10.40;99.90;;;;;;5056222;28;20025;-58
2022/04/30 02:18:03;;;;;;;23.15;11.98;;;10.50;99.90;;;;;;5056586;28;20497;-58
2022/04/30 02:20:33;;;;;;;19.10;11.15;;;10.60;99.90;;;;;;5074028;28;20039;-58
2022/04/30 02:23:09;;;;;;;20.48;10.98;;;10.70;99.90;;;;;;5056551;28;20077;-58
2022/04/30 02:25:36;;;;;;;19.70;10.52;;;10.70;99.90;;;;;;5074365;28;20025;-59
2022/04/30 02:28:05;;;;;;;18.08;9.93;;;10.70;99.90;;;;;;5055962;28;20051;-57
2022/04/30 02:30:32;;;;;;;19.27;9.95;;;10.70;99.90;;;;;;5055816;28;20028;-59
2022/04/30 02:33:08;;;;;;;19.67;10.45;;;10.80;99.90;;;;;;5073757;28;20083;-59
2022/04/30 02:35:34;;;;;;;24.58;11.60;;;10.90;99.90;;;;;;5073943;28;20017;-59
2022/04/30 02:38:03;;;;;;;18.73;11.15;;;10.80;99.90;;;;;;5073699;28;20016;-59
2022/04/30 02:40:30;;;;;;;21.88;12.40;;;10.70;99.90;;;;;;5055726;28;20056;-57
2022/04/30 02:43:04;;;;;;;23.55;11.75;;;10.50;99.90;;;;;;5073438;28;20100;-61
2022/04/30 02:45:30;;;;;;;19.90;10.75;;;10.30;99.90;;;;;;5073741;28;20108;-60
2022/04/30 02:47:56;;;;;;;19.50;11.02;;;10.30;99.90;;;;;;5073479;28;20056;-60
2022/04/30 02:50:23;;;;;;;21.15;11.48;;;10.40;99.90;;;;;;5073442;28;20020;-59
2022/04/30 02:52:50;;;;;;;21.48;11.73;;;10.40;99.90;;;;;;5073660;28;20060;-59
2022/04/30 02:55:15;;;;;;;21.30;10.35;;;10.50;99.90;;;;;;5055895;28;20052;-60
2022/04/30 03:00:44;;;;;;;18.55;11.13;;;10.60;99.90;;;;;;5073925;28;20047;-60
2022/04/30 03:03:11;;;;;;;22.05;11.73;;;10.70;99.90;;;;;;5073661;28;20032;-59
2022/04/30 03:05:39;;;;;;;18.10;10.63;;;10.70;99.90;;;;;;5073169;28;20036;-57
2022/04/30 03:08:12;;;;;;;23.13;11.50;;;10.70;99.90;;;;;;5055267;28;20035;-58
2022/04/30 03:10:42;;;;;;;22.23;12.38;;;10.80;99.90;;;;;;5073088;28;20035;-61
2022/04/30 03:13:08;;;;;;;20.90;10.80;;;10.90;99.90;;;;;;5054977;28;20087;-58
2022/04/30 03:15:34;;;;;;;17.63;11.13;;;10.90;99.90;;;;;;5055095;28;20130;-60
2022/04/30 03:23:24;;;;;;;20.65;10.50;;;10.90;99.90;;;;;;5073486;28;20028;-60
2022/04/30 03:25:49;;;;;;;22.00;10.80;;;10.90;99.90;;;;;;5072968;28;20027;-60
2022/04/30 03:28:15;;;;;;;18.17;10.90;;;11.00;99.90;;;;;;5073073;28;20024;-59
2022/04/30 03:30:41;;;;;;;16.27;9.15;;;10.90;99.90;;;;;;5072989;28;20039;-60
2022/04/30 03:33:08;;;;;;;18.50;10.32;;;10.90;99.90;;;;;;5072873;28;20019;-60
2022/04/30 03:35:39;;;;;;;18.33;10.15;;;11.00;99.90;;;;;;5072939;28;20042;-59
2022/04/30 03:38:06;;;;;;;18.23;10.43;;;11.00;99.90;;;;;;5054884;28;20104;-60
2022/04/30 03:40:32;;;;;;;19.25;10.52;;;11.00;99.90;;;;;;5072847;28;20021;-57
2022/04/30 03:42:57;;;;;;;20.35;11.40;;;10.90;99.90;;;;;;5072885;28;20024;-59
2022/04/30 03:45:23;;;;;;;19.25;10.50;;;10.90;99.90;;;;;;5055100;28;20048;-60
2022/04/30 03:47:49;;;;;;;20.23;10.68;;;10.90;99.90;;;;;;5072665;28;20104;-58
2022/04/30 03:50:14;;;;;;;17.95;10.73;;;10.80;99.90;;;;;;5072626;28;20028;-58
2022/04/30 03:52:40;;;;;;;17.27;9.63;;;10.70;99.90;;;;;;5054704;28;20104;-60
2022/04/30 03:55:08;;;;;;;20.92;11.00;;;10.60;99.90;;;;;;5054990;28;20025;-56
2022/04/30 03:57:34;;;;;;;18.00;10.38;;;10.60;99.90;;;;;;5072962;28;20021;-60
2022/04/30 04:00:01;;;;;;;19.45;10.13;;;10.60;99.90;;;;;;5072607;28;20027;-58
2022/04/30 04:02:27;;;;;;;16.85;9.27;;;10.70;99.90;;;;;;5072475;28;20033;-60
2022/04/30 04:04:53;;;;;;;17.52;9.63;;;10.70;99.90;;;;;;5072896;28;20537;-58
2022/04/30 04:07:20;;;;;;;17.63;8.90;;;10.70;99.90;;;;;;5072512;28;20035;-58
2022/04/30 04:09:45;;;;;;;18.42;11.43;;;10.80;99.90;;;;;;5072398;28;20028;-60
2022/04/30 04:12:11;;;;;;;18.13;9.75;;;10.70;99.90;;;;;;5072841;28;20036;-60
2022/04/30 04:17:39;;;;;;;19.35;9.40;;;10.60;99.90;;;;;;5077336;28;20031;-59
2022/04/30 04:20:09;;;;;;;17.98;9.77;;;10.50;99.90;;;;;;5059312;28;20028;-59
2022/04/30 04:22:36;;;;;;;16.60;9.13;;;10.50;99.90;;;;;;5058670;28;20035;-60
2022/04/30 04:27:55;;;;;;;18.30;9.98;;;10.60;99.90;;;;;;5076568;28;20549;-58
2022/04/30 04:30:28;;;;;;;15.95;8.93;;;10.70;99.90;;;;;;5058093;28;20505;-59
2022/04/30 04:32:55;;;;;;;16.27;9.50;;;10.60;99.90;;;;;;5076564;28;20421;-60
2022/04/30 04:35:21;;;;;;;16.40;8.90;;;10.70;99.90;;;;;;5058803;28;20104;-60
2022/04/30 04:37:47;;;;;;;15.68;8.50;;;10.60;99.90;;;;;;5058581;28;20016;-59
2022/04/30 04:40:13;;;;;;;13.25;8.02;;;10.70;99.90;;;;;;5058859;28;20028;-56
2022/04/30 04:42:40;;;;;;;12.80;8.13;;;10.70;99.90;;;;;;5058408;28;20052;-60
2022/04/30 04:45:07;;;;;;;15.60;8.85;;;10.70;99.90;;;;;;5076340;28;20020;-59
2022/04/30 04:47:35;;;;;;;15.93;9.02;;;10.80;99.90;;;;;;5058360;28;20102;-59
2022/04/30 04:50:04;;;;;;;12.68;6.72;;;10.80;99.90;;;;;;5076147;28;20521;-57
2022/04/30 04:52:30;;;;;;;17.10;8.18;;;10.80;99.90;;;;;;5058120;28;20025;-60
2022/04/30 04:54:57;;;;;;;14.18;7.53;;;10.80;99.90;;;;;;5058203;28;20017;-57
2022/04/30 04:57:23;;;;;;;11.00;6.88;;;10.80;99.90;;;;;;5058451;28;20024;-60
2022/04/30 04:59:49;;;;;;;13.90;7.95;;;10.60;99.90;;;;;;5076048;28;20023;-60
2022/04/30 05:02:16;;;;;;;14.23;7.57;;;10.60;99.90;;;;;;5057985;28;20028;-60
2022/04/30 05:04:42;;;;;;;12.18;7.25;;;10.70;99.90;;;;;;5058189;28;20035;-59
2022/04/30 05:07:07;;;;;;;11.82;6.97;;;10.70;99.90;;;;;;5075919;28;20024;-58
2022/04/30 05:09:33;;;;;;;9.90;6.28;;;10.70;99.90;;;;;;5058708;28;20035;-58
2022/04/30 05:12:01;;;;;;;17.08;7.90;;;10.70;99.90;;;;;;5075792;28;20025;-59
2022/04/30 05:14:33;;;;;;;14.52;7.70;;;10.60;99.90;;;;;;5058154;28;20082;-59
2022/04/30 05:17:05;;;;;;;14.20;7.50;;;10.50;99.90;;;;;;5058638;28;20031;-60
2022/04/30 05:19:30;;;;;;;13.63;7.93;;;10.60;99.90;;;;;;5075776;28;20074;-59
2022/04/30 05:21:56;;;;;;;12.75;7.07;;;10.70;99.90;;;;;;5058065;28;20029;-58
2022/04/30 05:24:22;;;;;;;15.85;8.02;;;10.50;99.90;;;;;;5074592;28;20103;-60
2022/04/30 05:26:48;;;;;;;14.85;8.85;;;10.50;99.90;;;;;;5057748;28;20103;-60
2022/04/30 05:29:14;;;;;;;13.38;6.43;;;10.40;99.90;;;;;;5057463;28;20025;-60
2022/04/30 05:31:40;;;;;;;9.07;6.13;;;10.50;99.90;;;;;;5075451;28;20553;-60
2022/04/30 05:34:05;;;;;;;15.23;7.20;;;10.60;99.90;;;;;;5058333;28;20024;-60
2022/04/30 05:36:31;;;;;;;13.60;8.10;;;10.50;99.90;;;;;;5075409;28;20016;-60
2022/04/30 05:38:57;;;;;;;16.67;8.07;;;10.40;99.90;;;;;;5057587;28;20020;-60
2022/04/30 05:41:23;;;;;;;13.27;7.70;;;10.30;99.90;;;;;;5058405;28;20441;-60
2022/04/30 05:43:48;;;;;;;14.23;7.22;;;10.30;99.90;;;;;;5057507;28;20046;-59
2022/04/30 05:46:14;;;;;;;16.80;8.95;;;10.40;99.90;;;;;;5057687;28;20023;-60
2022/04/30 05:48:40;;;;;;;14.82;7.63;;;10.50;99.90;;;;;;5057200;28;20032;-58
2022/04/30 05:51:05;;;;;;;12.00;7.45;;;10.40;99.90;;;;;;5057527;28;20020;-60
2022/04/30 05:53:31;;;;;;;13.18;8.02;;;10.30;99.90;;;;;;5057197;28;20024;-60
2022/04/30 05:55:57;;;;;;;13.10;8.10;;;10.30;99.90;;;;;;5057168;28;20506;-59
2022/04/30 05:58:23;;;;;;;13.80;7.80;;;10.30;99.90;;;;;;5057406;28;20027;-57
2022/04/30 06:00:49;;;;;;;13.35;7.10;;;10.40;99.90;;;;;;5057101;28;20024;-59
2022/04/30 06:03:14;;;;;;;12.30;7.70;;;10.40;99.90;;;;;;5074960;28;20021;-60
2022/04/30 06:05:40;;;;;;;14.60;7.05;;;10.40;99.90;;;;;;5057278;28;20062;-60
2022/04/30 06:08:06;;;;;;;12.05;7.03;;;10.40;99.90;;;;;;5075077;28;20058;-59
2022/04/30 06:10:32;;;;;;;12.45;7.10;;;10.30;99.90;;;;;;5075270;28;20059;-60
2022/04/30 06:12:58;;;;;;;13.43;7.00;;;10.40;99.90;;;;;;5057063;28;20025;-60
2022/04/30 06:15:24;;;;;;;16.45;7.85;;;10.40;99.90;;;;;;5056677;28;20027;-60
2022/04/30 06:17:49;;;;;;;15.73;7.30;;;10.20;99.90;;;;;;5074756;28;20017;-59
2022/04/30 06:20:15;;;;;;;13.25;7.57;;;10.30;99.90;;;;;;5074481;28;20027;-57
2022/04/30 06:22:41;;;;;;;14.32;8.27;;;10.40;99.90;;;;;;5056411;28;20046;-58
2022/04/30 06:25:07;;;;;;;15.18;7.55;;;10.30;99.90;;;;;;5074704;28;20031;-60
2022/04/30 06:27:33;;;;;;;13.27;6.72;;;10.30;99.90;;;;;;5074271;28;20035;-59
2022/04/30 06:29:59;;;;;;;15.43;7.60;;;10.40;99.90;;;;;;5074239;28;20021;-57
2022/04/30 06:32:25;;;;;;;12.07;6.88;;;10.40;99.90;;;;;;5056387;28;20091;-55
2022/04/30 06:34:51;;;;;;;13.38;6.30;;;10.50;99.90;;;;;;5056234;28;20479;-58
2022/04/30 06:37:17;;;;;;;10.85;6.75;;;10.50;99.90;;;;;;5056634;28;20025;-59
2022/04/30 06:39:43;;;;;;;14.65;8.05;;;10.40;99.90;;;;;;5056433;28;20028;-59
2022/04/30 06:42:09;;;;;;;12.52;7.40;;;10.40;99.90;;;;;;5056297;28;20032;-60
2022/04/30 06:44:35;;;;;;;13.93;8.20;;;10.40;99.90;;;;;;5074047;28;20020;-58
2022/04/30 06:47:00;;;;;;;11.38;6.55;;;10.40;99.90;;;;;;5073966;28;20031;-60
2022/04/30 06:49:26;;;;;;;11.30;6.65;;;10.50;99.90;;;;;;5074046;28;20028;-60
2022/04/30 06:51:52;;;;;;;11.15;6.50;;;10.60;99.90;;;;;;5073898;28;20539;-57
2022/04/30 06:57:08;;;;;;;12.88;7.50;;;10.30;99.90;;;;;;5074317;28;20034;-60
2022/04/30 06:59:37;;;;;;;10.10;6.40;;;10.30;99.90;;;;;;5073892;28;20070;-59
2022/04/30 07:02:07;;;;;;;13.15;6.63;;;10.20;99.90;;;;;;5056823;28;20028;-59
2022/04/30 07:04:33;;;;;;;11.55;6.65;;;10.40;99.90;;;;;;5055919;28;20098;-57
2022/04/30 07:06:59;;;;;;;12.02;7.10;;;10.40;99.90;;;;;;5055676;28;20028;-59
2022/04/30 07:09:28;;;;;;;13.98;7.63;;;10.30;99.90;;;;;;5073796;28;20031;-57
2022/04/30 07:11:54;;;;;;;13.57;7.20;;;10.20;99.90;;;;;;5073524;28;20032;-59
2022/04/30 07:14:20;;;;;;;10.25;5.55;;;10.30;99.90;;;;;;5056093;28;20028;-59
2022/04/30 07:16:46;;;;;;;11.27;6.63;;;10.40;99.90;;;;;;5055443;28;20017;-59
2022/04/30 07:19:11;;;;;;;17.88;7.30;;;10.40;99.90;;;;;;5073432;28;20032;-60
2022/04/30 07:21:37;;;;;;;10.82;7.10;;;10.40;99.90;;;;;;5055334;28;20029;-59
2022/04/30 07:24:03;;;;;;;11.25;6.13;;;10.40;99.90;;;;;;5073420;28;20033;-58
2022/04/30 07:26:29;;;;;;;13.38;6.60;;;10.50;99.90;;;;;;5055309;28;20032;-58
2022/04/30 07:28:55;;;;;;;14.48;7.78;;;10.40;99.90;;;;;;5073174;28;20029;-59
2022/04/30 07:31:21;;;;;;;12.45;7.20;;;10.10;99.90;;;;;;5073203;28;20463;-59
2022/04/30 07:33:48;;;;;;;22.48;8.45;;;10.00;99.90;;;;;;5073252;28;20035;-60
2022/04/30 07:36:13;;;;;;;15.48;8.88;;;10.00;99.90;;;;;;5073253;28;20016;-54
2022/04/30 07:38:39;;;;;;;15.20;7.72;;;10.10;99.90;;;;;;5055281;28;20020;-59
2022/04/30 07:41:05;;;;;;;12.13;7.60;;;10.10;99.90;;;;;;5073360;28;20537;-59
2022/04/30 07:43:31;;;;;;;12.20;7.38;;;10.30;99.90;;;;;;5073125;28;20429;-59
2022/04/30 07:45:57;;;;;;;12.02;6.68;;;10.30;99.90;;;;;;5055212;28;20020;-60
2022/04/30 07:48:22;;;;;;;11.93;6.40;;;10.30;99.90;;;;;;5072424;28;20079;-58
2022/04/30 07:50:48;;;;;;;11.13;6.18;;;10.40;99.90;;;;;;5072935;28;20025;-59
2022/04/30 07:53:15;;;;;;;12.73;7.07;;;10.30;99.90;;;;;;5055193;28;20092;-59
2022/04/30 07:55:44;;;;;;;10.43;6.10;;;10.20;99.90;;;;;;5073097;28;20048;-59
2022/04/30 07:58:10;;;;;;;12.18;6.78;;;10.30;99.90;;;;;;5073056;28;20017;-59
2022/04/30 08:00:36;;;;;;;14.80;7.15;;;10.30;99.90;;;;;;5073121;28;20025;-59
2022/04/30 08:03:03;;;;;;;14.40;7.10;;;10.20;99.90;;;;;;5072945;28;20073;-59
2022/04/30 08:05:29;;;;;;;12.85;7.43;;;10.20;99.90;;;;;;5055301;28;20490;-59
2022/04/30 08:07:55;;;;;;;10.18;6.13;;;10.20;99.90;;;;;;5055265;28;20025;-59
2022/04/30 08:10:20;;;;;;;12.70;6.78;;;10.30;99.90;;;;;;5056077;28;20025;-59
2022/04/30 08:12:46;;;;;;;12.27;6.53;;;10.40;99.90;;;;;;5055542;28;20024;-62
2022/04/30 08:15:12;;;;;;;10.27;6.05;;;10.30;99.90;;;;;;5055240;28;20029;-59
2022/04/30 08:17:38;;;;;;;12.60;7.00;;;10.20;99.90;;;;;;5073170;28;20032;-59
2022/04/30 08:20:08;;;;;;;10.35;6.45;;;10.10;99.90;;;;;;5072866;28;20394;-60
2022/04/30 08:22:34;;;;;;;13.35;7.03;;;10.10;99.90;;;;;;5072792;28;20038;-57
2022/04/30 08:25:01;;;;;;;11.57;5.90;;;10.10;99.90;;;;;;5072777;28;20103;-57
2022/04/30 08:27:27;;;;;;;11.07;6.25;;;10.20;99.90;;;;;;5072774;28;20074;-59
2022/04/30 08:29:52;;;;;;;12.13;6.30;;;10.10;99.90;;;;;;5054730;28;20068;-59
2022/04/30 08:32:19;;;;;;;10.45;6.07;;;10.20;99.90;;;;;;5054995;28;20021;-56
2022/04/30 08:34:45;;;;;;;12.27;6.38;;;10.40;99.90;;;;;;5054768;28;20032;-59
2022/04/30 08:37:11;;;;;;;18.45;6.00;;;10.40;99.90;;;;;;5072623;28;20017;-57
2022/04/30 08:39:37;;;;;;;12.20;6.47;;;10.40;99.90;;;;;;5054738;28;20445;-59
2022/04/30 08:42:06;;;;;;;11.57;6.68;;;10.40;99.90;;;;;;5054618;28;20021;-58
2022/04/30 08:44:35;;;;;;;19.23;7.10;;;10.30;99.90;;;;;;5072635;28;20025;-59
2022/04/30 08:47:01;;;;;;;13.60;6.40;;;10.20;99.90;;;;;;5072989;28;20090;-59
2022/04/30 08:49:26;;;;;;;11.88;6.93;;;10.20;99.90;;;;;;5054822;28;20400;-56
2022/04/30 08:51:52;;;;;;;12.90;6.95;;;10.10;99.90;;;;;;5054919;28;20025;-59
2022/04/30 08:54:17;;;;;;;14.48;7.15;;;10.00;99.90;;;;;;5055109;28;20021;-59
2022/04/30 08:56:56;;;;;;;10.85;6.63;;;9.80;99.90;;;;;;5054924;28;20421;-58
2022/04/30 08:59:23;;;;;;;11.90;7.15;;;9.90;99.90;;;;;;5057089;28;20074;-59
2022/04/30 09:01:50;;;;;;;13.90;7.38;;;9.70;99.90;;;;;;5057942;28;20123;-59
2022/04/30 09:04:16;;;;;;;14.18;7.15;;;9.80;99.90;;;;;;5075896;28;20085;-59
2022/04/30 09:06:47;;;;;;;15.60;7.70;;;9.90;99.90;;;;;;5058017;28;20024;-59
2022/04/30 09:09:25;;;;;;;14.48;7.38;;;10.20;99.90;;;;;;5076177;28;20029;-58
2022/04/30 09:11:53;;;;;;;13.48;7.15;;;10.00;99.90;;;;;;5058665;28;20063;-57
2022/04/30 09:14:28;;;;;;;15.63;6.90;;;10.00;99.90;;;;;;5057897;28;20032;-59
2022/04/30 09:17:09;;;;;;;13.00;6.55;;;10.20;99.90;;;;;;5057825;28;20383;-59
2022/04/30 09:19:52;;;;;;;14.73;7.90;;;10.40;99.90;;;;;;5076141;28;20024;-58
2022/04/30 09:22:35;;;;;;;15.25;6.70;;;10.60;99.90;;;;;;5075626;28;20039;-59
2022/04/30 09:25:03;;;;;;;16.23;7.70;;;10.70;99.90;;;;;;5058642;28;20032;-59
2022/04/30 09:27:29;;;;;;;12.65;6.30;;;10.40;99.90;;;;;;5075473;28;20024;-59
2022/04/30 09:29:55;;;;;;;11.27;6.90;;;10.60;99.90;;;;;;5075677;28;20024;-59
2022/04/30 09:32:25;;;;;;;15.70;7.78;;;10.70;99.90;;;;;;5076081;28;20024;-59
2022/04/30 09:37:42;;;;;;;12.05;6.55;;;10.60;99.90;;;;;;5076080;28;20032;-59
2022/04/30 09:40:14;;;;;;;22.02;10.52;;;10.60;99.90;;;;;;5058150;28;20089;-58
2022/04/30 09:42:40;;;;;;;;;;;10.70;99.90;;;;;;5057956;28;20024;-59
2022/04/30 09:45:06;;;;;;;16.05;7.68;;;10.70;99.90;;;;;;5057337;28;20294;-59
2022/04/30 09:47:34;;;;;;;14.45;6.97;;;10.70;99.90;;;;;;5075542;28;20028;-58
2022/04/30 09:55:34;;;;;;;13.57;7.97;;;10.60;99.90;;;;;;5075365;28;20028;-59
2022/04/30 09:58:04;;;;;;;17.95;8.60;;;10.60;99.90;;;;;;5075015;28;20017;-56
2022/04/30 10:00:33;;;;;;;14.73;7.82;;;10.70;99.90;;;;;;5057100;28;20061;-59
2022/04/30 10:03:03;;;;;;;12.80;7.32;;;10.80;99.90;;;;;;5074904;28;20051;-62
2022/04/30 10:05:35;;;;;;;14.32;8.15;;;10.80;99.90;;;;;;5075089;28;20120;-60
2022/04/30 10:08:02;;;;;;;16.77;8.38;;;11.00;99.90;;;;;;5057625;28;20024;-62
2022/04/30 10:10:41;;;;;;;14.23;7.32;;;10.70;99.90;;;;;;5057157;28;20024;-59
2022/04/30 10:13:40;;;;;;;19.42;8.95;;;10.80;99.90;;;;;;5056791;28;20024;-60
2022/04/30 10:16:15;;;;;;;14.70;7.65;;;11.00;99.90;;;;;;5056837;28;20021;-59
2022/04/30 10:18:46;;;;;;;13.00;7.88;;;11.10;99.90;;;;;;5057536;28;20021;-57
2022/04/30 10:21:18;;;;;;;15.48;7.63;;;11.10;99.90;;;;;;5074473;28;20382;-61
2022/04/30 10:23:45;;;;;;;17.00;9.60;;;11.10;99.90;;;;;;5057530;28;20112;-59
2022/04/30 10:26:11;;;;;;;13.77;8.88;;;11.20;99.90;;;;;;5075100;28;20017;-61
2022/04/30 10:28:37;;;;;;;15.00;7.82;;;11.30;99.90;;;;;;5056539;28;20025;-58
2022/04/30 10:31:10;;;;;;;13.27;8.20;;;11.40;99.90;;;;;;5057145;28;20024;-59
2022/04/30 10:33:47;;;;;;;16.40;7.93;;;11.40;99.90;;;;;;5057278;28;20016;-59
2022/04/30 10:36:13;;;;;;;13.20;7.95;;;11.60;99.90;;;;;;5056298;28;20469;-59
2022/04/30 10:38:40;;;;;;;12.60;7.07;;;11.50;99.90;;;;;;5074106;28;20059;-59
2022/04/30 10:41:09;;;;;;;16.75;7.72;;;11.50;99.90;;;;;;5074113;28;20029;-59
2022/04/30 10:43:36;;;;;;;21.33;8.27;;;11.60;99.90;;;;;;5074112;28;20020;-60
2022/04/30 10:46:17;;;;;;;16.23;8.40;;;11.70;99.90;;;;;;5057106;28;20028;-59
2022/04/30 10:48:43;;;;;;;20.05;8.60;;;11.90;99.90;;;;;;5056306;28;20039;-59
2022/04/30 10:51:14;;;;;;;16.27;8.52;;;12.00;99.90;;;;;;5073939;28;20037;-60
2022/04/30 10:53:43;;;;;;;17.42;8.30;;;11.90;99.90;;;;;;5056413;28;20024;-58
2022/04/30 10:56:10;;;;;;;20.50;8.20;;;11.80;99.90;;;;;;5074249;28;20039;-60
2022/04/30 10:58:37;;;;;;;12.20;7.32;;;11.90;99.90;;;;;;5056507;28;20048;-59
2022/04/30 11:01:16;;;;;;;14.20;8.52;;;12.10;99.90;;;;;;5073898;28;20025;-54
2022/04/30 11:03:46;;;;;;;16.08;8.23;;;12.10;99.90;;;;;;5073726;28;20031;-57
2022/04/30 11:06:18;;;;;;;15.52;7.72;;;12.20;99.90;;;;;;5056385;28;20035;-57
2022/04/30 11:08:43;;;;;;;17.55;7.47;;;12.40;99.90;;;;;;5073916;28;20456;-57
2022/04/30 11:11:09;;;;;;;13.23;7.32;;;12.50;99.90;;;;;;5055811;28;20116;-58
2022/04/30 11:13:35;;;;;;;10.30;6.07;;;12.70;99.90;;;;;;5056406;28;20024;-58
2022/04/30 11:16:00;;;;;;;16.70;6.93;;;12.60;99.90;;;;;;5073821;28;20023;-57
2022/04/30 11:18:26;;;;;;;16.52;8.55;;;12.60;99.90;;;;;;5073539;28;20020;-57
2022/04/30 11:21:00;;;;;;;17.25;8.98;;;12.50;99.90;;;;;;5073478;28;20028;-55
2022/04/30 11:23:28;;;;;;;18.15;7.95;;;12.30;99.90;;;;;;5054772;28;20048;-59
2022/04/30 11:25:54;;;;;;;12.57;7.55;;;12.50;99.90;;;;;;5055559;28;20047;-59
2022/04/30 11:28:28;;;;;;;12.20;7.65;;;12.50;99.90;;;;;;5055817;28;20024;-57
2022/04/30 11:30:58;;;;;;;15.63;8.30;;;12.40;99.90;;;;;;5056193;28;20043;-57
2022/04/30 11:33:36;;;;;;;22.17;8.02;;;12.50;99.90;;;;;;5056140;28;20029;-57
2022/04/30 11:36:02;;;;;;;16.30;7.45;;;12.50;99.90;;;;;;5073652;28;20065;-59
2022/04/30 11:38:28;;;;;;;12.15;8.02;;;12.70;99.90;;;;;;5073304;28;20115;-57
2022/04/30 11:41:07;;;;;;;13.40;7.90;;;12.70;99.90;;;;;;5073489;28;20064;-58
2022/04/30 11:43:33;;;;;;;17.05;7.97;;;12.80;99.90;;;;;;5055618;28;20051;-58
2022/04/30 11:46:00;;;;;;;13.90;5.35;;;12.70;99.90;;;;;;5073324;28;20028;-58
2022/04/30 11:48:31;;;;;;;15.05;7.50;;;13.00;99.90;;;;;;5056199;28;20029;-59
2022/04/30 11:50:57;;;;;;;16.38;7.50;;;13.10;99.90;;;;;;5055388;28;20085;-59
2022/04/30 11:53:23;;;;;;;22.75;7.13;;;13.20;99.90;;;;;;5073333;28;20024;-56
2022/04/30 11:55:50;;;;;;;8.60;6.47;;;12.90;99.90;;;;;;5055350;28;20017;-57
2022/04/30 11:58:15;;;;;;;14.02;7.53;;;12.90;99.90;;;;;;5055522;28;20479;-56
2022/04/30 12:00:41;;;;;;;12.93;6.97;;;12.80;99.90;;;;;;5055132;28;20029;-57
2022/04/30 12:03:06;;;;;;;14.35;6.82;;;13.00;99.90;;;;;;5055563;28;20024;-60
2022/04/30 12:05:32;;;;;;;16.45;7.07;;;13.20;99.90;;;;;;5055101;28;20033;-59
2022/04/30 12:08:01;;;;;;;14.73;8.32;;;13.40;99.90;;;;;;5073191;28;20032;-58
2022/04/30 12:10:28;;;;;;;12.23;7.43;;;13.60;99.90;;;;;;5073113;28;20052;-57
2022/04/30 12:12:54;;;;;;;14.35;7.25;;;13.60;99.90;;;;;;5055116;28;20024;-59
2022/04/30 12:15:20;;;;;;;17.88;7.97;;;13.70;99.90;;;;;;5073157;28;20032;-57
2022/04/30 12:24:40;;;;;;;15.00;7.68;;;13.60;99.90;;;;;;5073425;28;20099;-60
2022/04/30 12:26:06;;;;;;;12.75;6.75;;;13.20;99.90;;;;;;5073480;28;20046;-59
2022/04/30 12:28:46;;;;;;;15.75;7.47;;;13.30;99.90;;;;;;5072823;28;20021;-59
2022/04/30 12:31:12;;;;;;;13.30;7.03;;;13.20;99.90;;;;;;5055817;28;20112;-60
2022/04/30 12:33:46;;;;;;;12.30;7.53;;;13.40;99.90;;;;;;5074123;28;20502;-59
2022/04/30 12:36:13;;;;;;;10.40;6.57;;;13.50;99.90;;;;;;5059016;28;20024;-59
2022/04/30 12:38:38;;;;;;;18.02;7.00;;;13.50;99.90;;;;;;5076962;28;20066;-60
2022/04/30 12:41:06;;;;;;;12.85;6.80;;;13.60;99.90;;;;;;5076304;28;20025;-58
2022/04/30 12:43:36;;;;;;;12.63;7.00;;;13.50;99.90;;;;;;5058567;28;20091;-58
2022/04/30 12:46:04;;;;;;;13.95;7.45;;;13.50;99.90;;;;;;5076358;28;20021;-61
2022/04/30 12:48:32;;;;;;;13.10;8.02;;;13.50;99.90;;;;;;5076409;28;20028;-59
2022/04/30 12:50:58;;;;;;;12.52;7.70;;;13.50;99.90;;;;;;5076604;28;20028;-60
2022/04/30 12:53:23;;;;;;;18.42;8.23;;;13.40;99.90;;;;;;5076310;28;20317;-59
2022/04/30 12:55:52;;;;;;;16.10;8.25;;;13.50;99.90;;;;;;5058461;28;20024;-59
2022/04/30 12:58:18;;;;;;;13.05;6.95;;;13.30;99.90;;;;;;5058321;28;20032;-57
2022/04/30 13:00:45;;;;;;;20.77;8.85;;;13.00;99.90;;;;;;5076419;28;20032;-56
2022/04/30 13:03:11;;;;;;;14.77;8.57;;;13.00;99.90;;;;;;5076220;28;20032;-59
2022/04/30 13:05:37;;;;;;;15.25;7.20;;;12.90;99.90;;;;;;5058370;28;20039;-65
2022/04/30 13:08:03;;;;;;;15.50;9.18;;;13.00;99.90;;;;;;5075935;28;20060;-59
2022/04/30 13:16:10;;;;;;;13.65;7.70;;;13.10;99.90;;;;;;5052872;28;20028;-60
2022/04/30 13:18:37;;;;;;;16.13;8.38;;;13.30;99.90;;;;;;5076023;28;20013;-60
2022/04/30 13:21:04;;;;;;;18.98;8.30;;;13.40;99.90;;;;;;5075978;28;20017;-59